sensor_id;sensor_type;location;lat;lon;timestamp;P1;durP1;ratioP1;P2;durP2;ratioP2
2055;SDS011;1033;52.560;13.374;2023-05-10T00:06:11;9.10;;;6.30;;
2055;SDS011;1033;52.560;13.374;2023-05-10T00:12:01;6.90;;;6.07;;
2055;SDS011;1033;52.560;13.374;2023-05-10T00:14:32;9.60;;;6.97;;
2055;SDS011;1033;52.560;13.374;2023-05-10T00:17:28;10.97;;;6.77;;
2055;SDS011;1033;52.560;13.374;2023-05-10T00:20:31;7.57;;;6.63;;
2055;SDS011;1033;52.560;13.374;2023-05-10T00:23:24;9.27;;;6.83;;
2055;SDS011;1033;52.560;13.374;2023-05-10T00:26:23;9.33;;;6.80;;
2055;SDS011;1033;52.560;13.374;2023-05-10T00:29:33;7.30;;;6.60;;
2055;SDS011;1033;52.560;13.374;2023-05-10T00:35:00;8.30;;;6.87;;
2055;SDS011;1033;52.560;13.374;2023-05-10T00:38:47;8.33;;;6.40;;
2055;SDS011;1033;52.560;13.374;2023-05-10T00:44:20;7.50;;;6.80;;
2055;SDS011;1033;52.560;13.374;2023-05-10T00:54:37;8.70;;;6.40;;
2055;SDS011;1033;52.560;13.374;2023-05-10T01:01:10;7.60;;;6.80;;
2055;SDS011;1033;52.560;13.374;2023-05-10T01:15:14;8.43;;;6.50;;
2055;SDS011;1033;52.560;13.374;2023-05-10T01:17:59;8.10;;;7.00;;
2055;SDS011;1033;52.560;13.374;2023-05-10T01:20:43;7.57;;;6.50;;
2055;SDS011;1033;52.560;13.374;2023-05-10T01:24:00;13.27;;;7.67;;
2055;SDS011;1033;52.560;13.374;2023-05-10T01:27:09;8.93;;;7.10;;
2055;SDS011;1033;52.560;13.374;2023-05-10T01:30:02;9.20;;;6.60;;
2055;SDS011;1033;52.560;13.374;2023-05-10T01:33:05;10.40;;;6.47;;
2055;SDS011;1033;52.560;13.374;2023-05-10T01:35:45;8.50;;;6.60;;
2055;SDS011;1033;52.560;13.374;2023-05-10T01:38:22;8.43;;;6.37;;
2055;SDS011;1033;52.560;13.374;2023-05-10T01:41:04;13.03;;;7.23;;
2055;SDS011;1033;52.560;13.374;2023-05-10T01:43:48;6.77;;;6.07;;
2055;SDS011;1033;52.560;13.374;2023-05-10T01:46:28;7.97;;;6.87;;
2055;SDS011;1033;52.560;13.374;2023-05-10T01:49:31;6.93;;;6.07;;
2055;SDS011;1033;52.560;13.374;2023-05-10T01:52:11;8.30;;;6.43;;
2055;SDS011;1033;52.560;13.374;2023-05-10T01:54:52;7.30;;;6.00;;
2055;SDS011;1033;52.560;13.374;2023-05-10T01:57:26;7.87;;;6.50;;
2055;SDS011;1033;52.560;13.374;2023-05-10T02:00:06;9.20;;;8.00;;
2055;SDS011;1033;52.560;13.374;2023-05-10T02:02:40;9.90;;;7.10;;
2055;SDS011;1033;52.560;13.374;2023-05-10T02:05:19;8.43;;;7.33;;
2055;SDS011;1033;52.560;13.374;2023-05-10T02:07:56;12.77;;;7.40;;
2055;SDS011;1033;52.560;13.374;2023-05-10T02:10:28;6.90;;;6.20;;
2055;SDS011;1033;52.560;13.374;2023-05-10T02:12:58;6.80;;;5.80;;
2055;SDS011;1033;52.560;13.374;2023-05-10T02:15:32;6.63;;;6.03;;
2055;SDS011;1033;52.560;13.374;2023-05-10T02:18:05;8.17;;;7.37;;
2055;SDS011;1033;52.560;13.374;2023-05-10T02:20:37;10.07;;;5.97;;
2055;SDS011;1033;52.560;13.374;2023-05-10T02:23:10;8.90;;;6.87;;
2055;SDS011;1033;52.560;13.374;2023-05-10T02:25:40;9.15;;;6.82;;
2055;SDS011;1033;52.560;13.374;2023-05-10T02:28:13;9.07;;;5.50;;
2055;SDS011;1033;52.560;13.374;2023-05-10T02:30:44;9.07;;;6.60;;
2055;SDS011;1033;52.560;13.374;2023-05-10T02:33:16;15.93;;;6.43;;
2055;SDS011;1033;52.560;13.374;2023-05-10T02:35:52;8.15;;;7.32;;
2055;SDS011;1033;52.560;13.374;2023-05-10T02:41:36;7.18;;;5.82;;
2055;SDS011;1033;52.560;13.374;2023-05-10T02:44:08;8.57;;;6.72;;
2055;SDS011;1033;52.560;13.374;2023-05-10T02:46:38;6.73;;;6.03;;
2055;SDS011;1033;52.560;13.374;2023-05-10T02:49:08;8.32;;;7.32;;
2055;SDS011;1033;52.560;13.374;2023-05-10T02:51:41;7.47;;;6.53;;
2055;SDS011;1033;52.560;13.374;2023-05-10T02:54:15;6.65;;;5.90;;
2055;SDS011;1033;52.560;13.374;2023-05-10T02:56:49;7.65;;;6.18;;
2055;SDS011;1033;52.560;13.374;2023-05-10T02:59:26;7.07;;;6.10;;
2055;SDS011;1033;52.560;13.374;2023-05-10T03:01:55;8.82;;;6.70;;
2055;SDS011;1033;52.560;13.374;2023-05-10T03:04:25;7.45;;;6.63;;
2055;SDS011;1033;52.560;13.374;2023-05-10T03:06:58;10.40;;;6.10;;
2055;SDS011;1033;52.560;13.374;2023-05-10T03:09:27;6.43;;;5.82;;
2055;SDS011;1033;52.560;13.374;2023-05-10T03:12:01;9.23;;;6.03;;
2055;SDS011;1033;52.560;13.374;2023-05-10T03:14:43;8.85;;;6.65;;
2055;SDS011;1033;52.560;13.374;2023-05-10T03:17:23;9.60;;;6.70;;
2055;SDS011;1033;52.560;13.374;2023-05-10T03:20:03;6.22;;;5.60;;
2055;SDS011;1033;52.560;13.374;2023-05-10T03:22:42;7.32;;;6.40;;
2055;SDS011;1033;52.560;13.374;2023-05-10T03:25:35;8.00;;;5.55;;
2055;SDS011;1033;52.560;13.374;2023-05-10T03:28:22;6.25;;;4.90;;
2055;SDS011;1033;52.560;13.374;2023-05-10T03:30:59;5.90;;;5.25;;
2055;SDS011;1033;52.560;13.374;2023-05-10T03:33:31;6.20;;;5.60;;
2055;SDS011;1033;52.560;13.374;2023-05-10T03:36:04;13.43;;;5.05;;
2055;SDS011;1033;52.560;13.374;2023-05-10T03:38:52;9.55;;;6.43;;
2055;SDS011;1033;52.560;13.374;2023-05-10T03:41:38;9.68;;;5.70;;
2055;SDS011;1033;52.560;13.374;2023-05-10T03:44:12;6.27;;;5.67;;
2055;SDS011;1033;52.560;13.374;2023-05-10T03:46:43;7.53;;;5.82;;
2055;SDS011;1033;52.560;13.374;2023-05-10T03:49:22;12.40;;;6.17;;
2055;SDS011;1033;52.560;13.374;2023-05-10T03:51:51;6.03;;;5.20;;
2055;SDS011;1033;52.560;13.374;2023-05-10T03:54:33;10.63;;;6.47;;
2055;SDS011;1033;52.560;13.374;2023-05-10T03:57:05;11.77;;;5.70;;
2055;SDS011;1033;52.560;13.374;2023-05-10T04:00:12;6.27;;;5.67;;
2055;SDS011;1033;52.560;13.374;2023-05-10T04:02:51;8.80;;;5.30;;
2055;SDS011;1033;52.560;13.374;2023-05-10T04:05:35;8.17;;;5.83;;
2055;SDS011;1033;52.560;13.374;2023-05-10T04:08:29;6.10;;;5.47;;
2055;SDS011;1033;52.560;13.374;2023-05-10T04:11:14;6.17;;;5.33;;
2055;SDS011;1033;52.560;13.374;2023-05-10T04:14:10;7.50;;;5.10;;
2055;SDS011;1033;52.560;13.374;2023-05-10T04:17:24;6.00;;;4.97;;
2055;SDS011;1033;52.560;13.374;2023-05-10T04:22:49;8.37;;;6.27;;
2055;SDS011;1033;52.560;13.374;2023-05-10T04:25:30;7.27;;;5.77;;
2055;SDS011;1033;52.560;13.374;2023-05-10T04:32:16;7.03;;;6.00;;
2055;SDS011;1033;52.560;13.374;2023-05-10T04:34:54;8.00;;;5.20;;
2055;SDS011;1033;52.560;13.374;2023-05-10T04:37:23;8.80;;;5.40;;
2055;SDS011;1033;52.560;13.374;2023-05-10T04:39:52;6.37;;;5.33;;
2055;SDS011;1033;52.560;13.374;2023-05-10T04:42:21;7.70;;;6.30;;
2055;SDS011;1033;52.560;13.374;2023-05-10T04:44:51;6.10;;;5.30;;
2055;SDS011;1033;52.560;13.374;2023-05-10T04:47:20;8.53;;;5.80;;
2055;SDS011;1033;52.560;13.374;2023-05-10T04:49:49;7.00;;;6.13;;
2055;SDS011;1033;52.560;13.374;2023-05-10T04:52:18;9.43;;;5.20;;
2055;SDS011;1033;52.560;13.374;2023-05-10T04:54:47;8.37;;;5.03;;
2055;SDS011;1033;52.560;13.374;2023-05-10T04:57:17;6.10;;;5.10;;
2055;SDS011;1033;52.560;13.374;2023-05-10T04:59:46;8.60;;;5.53;;
2055;SDS011;1033;52.560;13.374;2023-05-10T05:02:17;8.33;;;5.20;;
2055;SDS011;1033;52.560;13.374;2023-05-10T05:04:46;8.17;;;5.40;;
2055;SDS011;1033;52.560;13.374;2023-05-10T05:07:16;7.13;;;5.47;;
2055;SDS011;1033;52.560;13.374;2023-05-10T05:09:45;6.00;;;5.40;;
2055;SDS011;1033;52.560;13.374;2023-05-10T05:12:14;6.27;;;5.67;;
2055;SDS011;1033;52.560;13.374;2023-05-10T05:14:43;7.57;;;4.80;;
2055;SDS011;1033;52.560;13.374;2023-05-10T05:17:12;5.80;;;4.90;;
2055;SDS011;1033;52.560;13.374;2023-05-10T05:19:43;8.73;;;4.80;;
2055;SDS011;1033;52.560;13.374;2023-05-10T05:22:12;6.00;;;5.40;;
2055;SDS011;1033;52.560;13.374;2023-05-10T05:24:43;9.07;;;5.40;;
2055;SDS011;1033;52.560;13.374;2023-05-10T05:27:13;7.80;;;6.23;;
2055;SDS011;1033;52.560;13.374;2023-05-10T05:29:42;7.17;;;5.23;;
2055;SDS011;1033;52.560;13.374;2023-05-10T05:32:11;5.43;;;4.83;;
2055;SDS011;1033;52.560;13.374;2023-05-10T05:34:40;6.97;;;5.10;;
2055;SDS011;1033;52.560;13.374;2023-05-10T05:37:12;5.97;;;4.13;;
2055;SDS011;1033;52.560;13.374;2023-05-10T05:39:42;6.37;;;5.00;;
2055;SDS011;1033;52.560;13.374;2023-05-10T05:42:12;6.33;;;4.50;;
2055;SDS011;1033;52.560;13.374;2023-05-10T05:44:43;5.60;;;4.30;;
2055;SDS011;1033;52.560;13.374;2023-05-10T05:47:12;5.40;;;4.63;;
2055;SDS011;1033;52.560;13.374;2023-05-10T05:49:42;5.63;;;4.90;;
2055;SDS011;1033;52.560;13.374;2023-05-10T05:52:13;8.20;;;5.43;;
2055;SDS011;1033;52.560;13.374;2023-05-10T05:54:42;6.03;;;3.90;;
2055;SDS011;1033;52.560;13.374;2023-05-10T05:57:11;5.00;;;4.57;;
2055;SDS011;1033;52.560;13.374;2023-05-10T05:59:40;6.60;;;4.33;;
2055;SDS011;1033;52.560;13.374;2023-05-10T06:02:10;4.70;;;4.00;;
2055;SDS011;1033;52.560;13.374;2023-05-10T06:04:39;4.73;;;4.23;;
2055;SDS011;1033;52.560;13.374;2023-05-10T06:07:11;6.80;;;3.93;;
2055;SDS011;1033;52.560;13.374;2023-05-10T06:09:40;9.47;;;4.40;;
2055;SDS011;1033;52.560;13.374;2023-05-10T06:12:09;6.87;;;4.17;;
2055;SDS011;1033;52.560;13.374;2023-05-10T06:14:39;8.20;;;5.90;;
2055;SDS011;1033;52.560;13.374;2023-05-10T06:17:08;6.50;;;4.53;;
2055;SDS011;1033;52.560;13.374;2023-05-10T06:19:37;4.80;;;4.10;;
2055;SDS011;1033;52.560;13.374;2023-05-10T06:22:06;4.23;;;3.50;;
2055;SDS011;1033;52.560;13.374;2023-05-10T06:24:36;3.70;;;3.40;;
2055;SDS011;1033;52.560;13.374;2023-05-10T06:27:06;3.40;;;3.10;;
2055;SDS011;1033;52.560;13.374;2023-05-10T06:29:36;5.13;;;4.20;;
2055;SDS011;1033;52.560;13.374;2023-05-10T06:32:05;4.80;;;3.70;;
2055;SDS011;1033;52.560;13.374;2023-05-10T06:34:35;5.00;;;3.83;;
2055;SDS011;1033;52.560;13.374;2023-05-10T06:37:07;5.90;;;3.40;;
2055;SDS011;1033;52.560;13.374;2023-05-10T06:39:38;7.00;;;3.50;;
2055;SDS011;1033;52.560;13.374;2023-05-10T06:42:07;5.30;;;3.77;;
2055;SDS011;1033;52.560;13.374;2023-05-10T06:44:36;6.00;;;4.00;;
2055;SDS011;1033;52.560;13.374;2023-05-10T06:47:05;4.47;;;3.83;;
2055;SDS011;1033;52.560;13.374;2023-05-10T06:49:35;8.80;;;3.80;;
2055;SDS011;1033;52.560;13.374;2023-05-10T06:52:05;4.83;;;3.20;;
2055;SDS011;1033;52.560;13.374;2023-05-10T06:54:34;6.13;;;3.60;;
2055;SDS011;1033;52.560;13.374;2023-05-10T06:57:08;8.33;;;3.50;;
2055;SDS011;1033;52.560;13.374;2023-05-10T06:59:56;6.57;;;4.57;;
2055;SDS011;1033;52.560;13.374;2023-05-10T07:02:26;4.50;;;3.43;;
2055;SDS011;1033;52.560;13.374;2023-05-10T07:04:55;4.60;;;3.90;;
2055;SDS011;1033;52.560;13.374;2023-05-10T07:07:28;5.27;;;3.73;;
2055;SDS011;1033;52.560;13.374;2023-05-10T07:09:57;2.93;;;2.43;;
2055;SDS011;1033;52.560;13.374;2023-05-10T07:12:28;12.57;;;4.00;;
2055;SDS011;1033;52.560;13.374;2023-05-10T07:14:57;3.60;;;3.30;;
2055;SDS011;1033;52.560;13.374;2023-05-10T07:17:26;4.40;;;4.00;;
2055;SDS011;1033;52.560;13.374;2023-05-10T07:19:55;3.87;;;3.23;;
2055;SDS011;1033;52.560;13.374;2023-05-10T07:22:24;4.77;;;3.70;;
2055;SDS011;1033;52.560;13.374;2023-05-10T07:24:54;3.43;;;3.13;;
2055;SDS011;1033;52.560;13.374;2023-05-10T07:27:23;4.10;;;3.40;;
2055;SDS011;1033;52.560;13.374;2023-05-10T07:29:53;4.23;;;3.60;;
2055;SDS011;1033;52.560;13.374;2023-05-10T07:32:23;6.40;;;3.67;;
2055;SDS011;1033;52.560;13.374;2023-05-10T07:34:52;5.13;;;4.70;;
2055;SDS011;1033;52.560;13.374;2023-05-10T07:37:21;4.73;;;3.50;;
2055;SDS011;1033;52.560;13.374;2023-05-10T07:39:50;7.00;;;4.40;;
2055;SDS011;1033;52.560;13.374;2023-05-10T07:42:19;4.27;;;3.40;;
2055;SDS011;1033;52.560;13.374;2023-05-10T07:44:48;5.17;;;3.93;;
2055;SDS011;1033;52.560;13.374;2023-05-10T07:47:21;3.87;;;3.47;;
2055;SDS011;1033;52.560;13.374;2023-05-10T07:49:50;6.17;;;3.63;;
2055;SDS011;1033;52.560;13.374;2023-05-10T07:52:19;6.80;;;3.43;;
2055;SDS011;1033;52.560;13.374;2023-05-10T07:54:48;5.00;;;3.40;;
2055;SDS011;1033;52.560;13.374;2023-05-10T07:57:17;5.37;;;3.70;;
2055;SDS011;1033;52.560;13.374;2023-05-10T07:59:47;6.80;;;4.10;;
2055;SDS011;1033;52.560;13.374;2023-05-10T08:02:18;10.63;;;3.60;;
2055;SDS011;1033;52.560;13.374;2023-05-10T08:04:47;4.20;;;3.40;;
2055;SDS011;1033;52.560;13.374;2023-05-10T08:07:16;4.57;;;4.17;;
2055;SDS011;1033;52.560;13.374;2023-05-10T08:09:45;4.23;;;3.60;;
2055;SDS011;1033;52.560;13.374;2023-05-10T08:12:14;4.23;;;3.67;;
2055;SDS011;1033;52.560;13.374;2023-05-10T08:14:43;4.13;;;3.63;;
2055;SDS011;1033;52.560;13.374;2023-05-10T08:17:12;4.23;;;3.47;;
2055;SDS011;1033;52.560;13.374;2023-05-10T08:19:43;5.13;;;3.50;;
2055;SDS011;1033;52.560;13.374;2023-05-10T08:22:13;3.60;;;3.30;;
2055;SDS011;1033;52.560;13.374;2023-05-10T08:24:43;7.77;;;4.03;;
2055;SDS011;1033;52.560;13.374;2023-05-10T08:27:12;4.60;;;4.03;;
2055;SDS011;1033;52.560;13.374;2023-05-10T08:29:41;5.00;;;4.13;;
2055;SDS011;1033;52.560;13.374;2023-05-10T08:32:16;3.70;;;3.40;;
2055;SDS011;1033;52.560;13.374;2023-05-10T08:34:46;8.90;;;4.23;;
2055;SDS011;1033;52.560;13.374;2023-05-10T08:37:15;10.63;;;3.20;;
2055;SDS011;1033;52.560;13.374;2023-05-10T08:39:44;4.00;;;3.40;;
2055;SDS011;1033;52.560;13.374;2023-05-10T08:42:15;4.63;;;3.53;;
2055;SDS011;1033;52.560;13.374;2023-05-10T08:44:47;3.63;;;3.33;;
2055;SDS011;1033;52.560;13.374;2023-05-10T08:47:17;4.40;;;4.00;;
2055;SDS011;1033;52.560;13.374;2023-05-10T08:49:48;7.07;;;3.87;;
2055;SDS011;1033;52.560;13.374;2023-05-10T08:52:18;5.70;;;3.57;;
2055;SDS011;1033;52.560;13.374;2023-05-10T08:54:48;14.40;;;4.27;;
2055;SDS011;1033;52.560;13.374;2023-05-10T08:57:18;3.93;;;3.50;;
2055;SDS011;1033;52.560;13.374;2023-05-10T08:59:47;6.87;;;3.20;;
2055;SDS011;1033;52.560;13.374;2023-05-10T09:02:16;4.53;;;4.17;;
2055;SDS011;1033;52.560;13.374;2023-05-10T09:04:49;5.50;;;4.57;;
2055;SDS011;1033;52.560;13.374;2023-05-10T09:07:18;8.00;;;4.20;;
2055;SDS011;1033;52.560;13.374;2023-05-10T09:09:48;5.40;;;3.83;;
2055;SDS011;1033;52.560;13.374;2023-05-10T09:12:17;4.10;;;3.23;;
2055;SDS011;1033;52.560;13.374;2023-05-10T09:14:46;4.20;;;3.70;;
2055;SDS011;1033;52.560;13.374;2023-05-10T09:17:18;7.63;;;3.93;;
2055;SDS011;1033;52.560;13.374;2023-05-10T09:19:50;4.27;;;3.60;;
2055;SDS011;1033;52.560;13.374;2023-05-10T09:22:24;6.80;;;3.27;;
2055;SDS011;1033;52.560;13.374;2023-05-10T09:25:03;5.63;;;4.30;;
2055;SDS011;1033;52.560;13.374;2023-05-10T09:27:33;4.03;;;3.63;;
2055;SDS011;1033;52.560;13.374;2023-05-10T09:30:03;4.40;;;3.50;;
2055;SDS011;1033;52.560;13.374;2023-05-10T09:32:36;7.13;;;3.30;;
2055;SDS011;1033;52.560;13.374;2023-05-10T09:35:08;4.43;;;3.77;;
2055;SDS011;1033;52.560;13.374;2023-05-10T09:37:38;5.23;;;4.27;;
2055;SDS011;1033;52.560;13.374;2023-05-10T09:40:11;4.53;;;4.13;;
2055;SDS011;1033;52.560;13.374;2023-05-10T09:42:42;5.80;;;5.17;;
2055;SDS011;1033;52.560;13.374;2023-05-10T09:45:18;6.77;;;3.93;;
2055;SDS011;1033;52.560;13.374;2023-05-10T09:47:49;6.23;;;5.63;;
2055;SDS011;1033;52.560;13.374;2023-05-10T09:50:34;4.07;;;3.63;;
2055;SDS011;1033;52.560;13.374;2023-05-10T09:53:03;5.83;;;4.17;;
2055;SDS011;1033;52.560;13.374;2023-05-10T09:55:40;4.37;;;3.50;;
2055;SDS011;1033;52.560;13.374;2023-05-10T09:58:11;4.50;;;3.50;;
2055;SDS011;1033;52.560;13.374;2023-05-10T10:00:41;6.70;;;3.70;;
2055;SDS011;1033;52.560;13.374;2023-05-10T10:03:12;4.40;;;4.00;;
2055;SDS011;1033;52.560;13.374;2023-05-10T10:05:44;5.87;;;4.37;;
2055;SDS011;1033;52.560;13.374;2023-05-10T10:08:14;5.00;;;4.00;;
2055;SDS011;1033;52.560;13.374;2023-05-10T10:10:44;4.20;;;3.80;;
2055;SDS011;1033;52.560;13.374;2023-05-10T10:13:14;8.43;;;3.20;;
2055;SDS011;1033;52.560;13.374;2023-05-10T10:15:43;3.90;;;3.20;;
2055;SDS011;1033;52.560;13.374;2023-05-10T10:18:15;8.37;;;4.13;;
2055;SDS011;1033;52.560;13.374;2023-05-10T10:20:46;4.60;;;3.67;;
2055;SDS011;1033;52.560;13.374;2023-05-10T10:23:16;4.73;;;3.50;;
2055;SDS011;1033;52.560;13.374;2023-05-10T10:25:45;5.30;;;3.77;;
2055;SDS011;1033;52.560;13.374;2023-05-10T10:28:19;4.57;;;4.07;;
2055;SDS011;1033;52.560;13.374;2023-05-10T10:30:54;4.13;;;3.47;;
2055;SDS011;1033;52.560;13.374;2023-05-10T10:36:24;9.53;;;3.80;;
2055;SDS011;1033;52.560;13.374;2023-05-10T10:38:55;4.70;;;3.83;;
2055;SDS011;1033;52.560;13.374;2023-05-10T10:41:27;6.37;;;3.83;;
2055;SDS011;1033;52.560;13.374;2023-05-10T10:47:02;4.53;;;4.03;;
2055;SDS011;1033;52.560;13.374;2023-05-10T10:49:38;5.50;;;3.90;;
2055;SDS011;1033;52.560;13.374;2023-05-10T10:52:20;5.77;;;4.60;;
2055;SDS011;1033;52.560;13.374;2023-05-10T10:54:58;3.97;;;3.57;;
2055;SDS011;1033;52.560;13.374;2023-05-10T10:57:28;4.50;;;4.07;;
2055;SDS011;1033;52.560;13.374;2023-05-10T11:00:21;4.97;;;4.13;;
2055;SDS011;1033;52.560;13.374;2023-05-10T11:02:56;6.10;;;3.53;;
2055;SDS011;1033;52.560;13.374;2023-05-10T11:08:18;4.03;;;3.63;;
2055;SDS011;1033;52.560;13.374;2023-05-10T11:11:01;5.70;;;4.27;;
2055;SDS011;1033;52.560;13.374;2023-05-10T11:13:34;4.57;;;4.17;;
2055;SDS011;1033;52.560;13.374;2023-05-10T11:16:09;9.17;;;3.77;;
2055;SDS011;1033;52.560;13.374;2023-05-10T11:18:40;6.67;;;4.30;;
2055;SDS011;1033;52.560;13.374;2023-05-10T11:21:20;4.27;;;3.97;;
2055;SDS011;1033;52.560;13.374;2023-05-10T11:23:51;6.10;;;4.20;;
2055;SDS011;1033;52.560;13.374;2023-05-10T11:26:23;6.90;;;4.57;;
2055;SDS011;1033;52.560;13.374;2023-05-10T11:28:53;5.43;;;3.67;;
2055;SDS011;1033;52.560;13.374;2023-05-10T11:31:50;6.93;;;3.83;;
2055;SDS011;1033;52.560;13.374;2023-05-10T11:34:23;4.60;;;3.53;;
2055;SDS011;1033;52.560;13.374;2023-05-10T11:36:53;7.60;;;4.30;;
2055;SDS011;1033;52.560;13.374;2023-05-10T11:39:26;3.97;;;3.60;;
2055;SDS011;1033;52.560;13.374;2023-05-10T11:41:56;4.03;;;3.63;;
2055;SDS011;1033;52.560;13.374;2023-05-10T11:44:28;5.13;;;4.03;;
2055;SDS011;1033;52.560;13.374;2023-05-10T11:46:58;8.33;;;4.40;;
2055;SDS011;1033;52.560;13.374;2023-05-10T11:49:28;8.97;;;4.57;;
2055;SDS011;1033;52.560;13.374;2023-05-10T11:52:03;4.43;;;3.83;;
2055;SDS011;1033;52.560;13.374;2023-05-10T11:54:35;7.87;;;4.43;;
2055;SDS011;1033;52.560;13.374;2023-05-10T11:57:03;4.40;;;4.00;;
2055;SDS011;1033;52.560;13.374;2023-05-10T11:59:32;3.63;;;3.30;;
2055;SDS011;1033;52.560;13.374;2023-05-10T12:02:01;9.10;;;4.50;;
2055;SDS011;1033;52.560;13.374;2023-05-10T12:04:30;8.17;;;4.10;;
2055;SDS011;1033;52.560;13.374;2023-05-10T12:07:00;4.10;;;3.70;;
2055;SDS011;1033;52.560;13.374;2023-05-10T12:09:29;6.30;;;4.17;;
2055;SDS011;1033;52.560;13.374;2023-05-10T12:12:11;7.13;;;3.87;;
2055;SDS011;1033;52.560;13.374;2023-05-10T12:14:44;3.73;;;3.40;;
2055;SDS011;1033;52.560;13.374;2023-05-10T12:17:20;4.27;;;3.87;;
2055;SDS011;1033;52.560;13.374;2023-05-10T12:19:49;5.10;;;4.03;;
2055;SDS011;1033;52.560;13.374;2023-05-10T12:22:20;4.37;;;3.67;;
2055;SDS011;1033;52.560;13.374;2023-05-10T12:24:49;7.20;;;3.87;;
2055;SDS011;1033;52.560;13.374;2023-05-10T12:27:20;4.67;;;3.53;;
2055;SDS011;1033;52.560;13.374;2023-05-10T12:29:49;5.40;;;3.63;;
2055;SDS011;1033;52.560;13.374;2023-05-10T12:32:21;6.40;;;4.17;;
2055;SDS011;1033;52.560;13.374;2023-05-10T12:35:06;4.57;;;3.30;;
2055;SDS011;1033;52.560;13.374;2023-05-10T12:37:38;5.17;;;4.13;;
2055;SDS011;1033;52.560;13.374;2023-05-10T12:40:08;7.00;;;3.90;;
2055;SDS011;1033;52.560;13.374;2023-05-10T12:42:39;8.43;;;4.00;;
2055;SDS011;1033;52.560;13.374;2023-05-10T12:45:10;5.20;;;4.00;;
2055;SDS011;1033;52.560;13.374;2023-05-10T12:47:39;9.53;;;4.03;;
2055;SDS011;1033;52.560;13.374;2023-05-10T12:50:09;4.03;;;3.63;;
2055;SDS011;1033;52.560;13.374;2023-05-10T12:52:38;5.00;;;3.50;;
2055;SDS011;1033;52.560;13.374;2023-05-10T12:55:07;4.80;;;4.33;;
2055;SDS011;1033;52.560;13.374;2023-05-10T12:57:36;4.17;;;3.77;;
2055;SDS011;1033;52.560;13.374;2023-05-10T13:00:08;7.10;;;3.77;;
2055;SDS011;1033;52.560;13.374;2023-05-10T13:02:37;3.60;;;3.30;;
2055;SDS011;1033;52.560;13.374;2023-05-10T13:05:06;4.00;;;3.60;;
2055;SDS011;1033;52.560;13.374;2023-05-10T13:07:36;5.73;;;4.07;;
2055;SDS011;1033;52.560;13.374;2023-05-10T13:10:05;3.80;;;3.33;;
2055;SDS011;1033;52.560;13.374;2023-05-10T13:12:35;3.57;;;3.27;;
2055;SDS011;1033;52.560;13.374;2023-05-10T13:15:04;5.20;;;3.67;;
2055;SDS011;1033;52.560;13.374;2023-05-10T13:17:36;4.67;;;3.90;;
2055;SDS011;1033;52.560;13.374;2023-05-10T13:20:05;4.77;;;3.40;;
2055;SDS011;1033;52.560;13.374;2023-05-10T13:22:35;5.50;;;3.90;;
2055;SDS011;1033;52.560;13.374;2023-05-10T13:25:06;5.73;;;5.13;;
2055;SDS011;1033;52.560;13.374;2023-05-10T13:27:36;5.93;;;5.40;;
2055;SDS011;1033;52.560;13.374;2023-05-10T13:30:05;5.40;;;3.60;;
2055;SDS011;1033;52.560;13.374;2023-05-10T13:32:37;6.70;;;4.13;;
2055;SDS011;1033;52.560;13.374;2023-05-10T13:35:07;4.17;;;3.50;;
2055;SDS011;1033;52.560;13.374;2023-05-10T13:37:36;4.30;;;3.70;;
2055;SDS011;1033;52.560;13.374;2023-05-10T13:40:05;3.33;;;3.00;;
2055;SDS011;1033;52.560;13.374;2023-05-10T13:42:35;3.73;;;3.33;;
2055;SDS011;1033;52.560;13.374;2023-05-10T13:45:04;7.10;;;5.80;;
2055;SDS011;1033;52.560;13.374;2023-05-10T13:47:35;7.80;;;4.60;;
2055;SDS011;1033;52.560;13.374;2023-05-10T13:50:04;5.00;;;3.70;;
2055;SDS011;1033;52.560;13.374;2023-05-10T13:52:34;3.73;;;3.43;;
2055;SDS011;1033;52.560;13.374;2023-05-10T13:55:03;6.00;;;3.83;;
2055;SDS011;1033;52.560;13.374;2023-05-10T13:57:32;5.33;;;3.50;;
2055;SDS011;1033;52.560;13.374;2023-05-10T14:00:02;4.90;;;3.50;;
2055;SDS011;1033;52.560;13.374;2023-05-10T14:02:34;4.43;;;3.63;;
2055;SDS011;1033;52.560;13.374;2023-05-10T14:05:04;5.40;;;3.40;;
2055;SDS011;1033;52.560;13.374;2023-05-10T14:07:33;5.53;;;4.10;;
2055;SDS011;1033;52.560;13.374;2023-05-10T14:10:02;3.87;;;3.47;;
2055;SDS011;1033;52.560;13.374;2023-05-10T14:12:32;4.40;;;3.10;;
2055;SDS011;1033;52.560;13.374;2023-05-10T14:17:57;5.93;;;4.40;;
2055;SDS011;1033;52.560;13.374;2023-05-10T14:20:27;3.50;;;3.20;;
2055;SDS011;1033;52.560;13.374;2023-05-10T14:23:03;7.00;;;3.30;;
2055;SDS011;1033;52.560;13.374;2023-05-10T14:25:34;5.03;;;4.63;;
2055;SDS011;1033;52.560;13.374;2023-05-10T14:28:04;3.87;;;3.10;;
2055;SDS011;1033;52.560;13.374;2023-05-10T14:30:33;7.23;;;3.90;;
2055;SDS011;1033;52.560;13.374;2023-05-10T14:33:04;4.77;;;3.53;;
2055;SDS011;1033;52.560;13.374;2023-05-10T14:35:34;3.30;;;2.90;;
2055;SDS011;1033;52.560;13.374;2023-05-10T14:38:04;3.33;;;3.00;;
2055;SDS011;1033;52.560;13.374;2023-05-10T14:40:33;5.10;;;3.20;;
2055;SDS011;1033;52.560;13.374;2023-05-10T14:43:02;5.87;;;3.60;;
2055;SDS011;1033;52.560;13.374;2023-05-10T14:45:32;6.40;;;3.40;;
2055;SDS011;1033;52.560;13.374;2023-05-10T14:48:01;4.30;;;3.10;;
2055;SDS011;1033;52.560;13.374;2023-05-10T14:50:32;3.07;;;2.77;;
2055;SDS011;1033;52.560;13.374;2023-05-10T14:53:03;7.87;;;3.50;;
2055;SDS011;1033;52.560;13.374;2023-05-10T14:55:32;8.67;;;3.27;;
2055;SDS011;1033;52.560;13.374;2023-05-10T14:58:01;8.17;;;3.50;;
2055;SDS011;1033;52.560;13.374;2023-05-10T15:00:30;6.97;;;3.30;;
2055;SDS011;1033;52.560;13.374;2023-05-10T15:03:00;8.90;;;3.00;;
2055;SDS011;1033;52.560;13.374;2023-05-10T15:05:30;5.47;;;3.07;;
2055;SDS011;1033;52.560;13.374;2023-05-10T15:08:00;4.83;;;3.47;;
2055;SDS011;1033;52.560;13.374;2023-05-10T15:10:29;4.63;;;3.30;;
2055;SDS011;1033;52.560;13.374;2023-05-10T15:13:00;4.80;;;3.37;;
2055;SDS011;1033;52.560;13.374;2023-05-10T15:15:29;6.80;;;3.40;;
2055;SDS011;1033;52.560;13.374;2023-05-10T15:17:58;3.30;;;3.00;;
2055;SDS011;1033;52.560;13.374;2023-05-10T15:20:27;5.50;;;3.37;;
2055;SDS011;1033;52.560;13.374;2023-05-10T15:22:57;4.97;;;3.17;;
2055;SDS011;1033;52.560;13.374;2023-05-10T15:25:26;5.40;;;3.83;;
2055;SDS011;1033;52.560;13.374;2023-05-10T15:27:55;4.23;;;3.60;;
2055;SDS011;1033;52.560;13.374;2023-05-10T15:30:24;6.70;;;4.43;;
2055;SDS011;1033;52.560;13.374;2023-05-10T15:32:53;4.13;;;3.57;;
2055;SDS011;1033;52.560;13.374;2023-05-10T15:35:22;4.83;;;3.67;;
2055;SDS011;1033;52.560;13.374;2023-05-10T15:37:51;3.90;;;3.40;;
2055;SDS011;1033;52.560;13.374;2023-05-10T15:40:22;5.67;;;3.60;;
2055;SDS011;1033;52.560;13.374;2023-05-10T15:42:50;7.60;;;4.13;;
2055;SDS011;1033;52.560;13.374;2023-05-10T15:45:21;5.07;;;3.37;;
2055;SDS011;1033;52.560;13.374;2023-05-10T15:47:50;4.70;;;3.50;;
2055;SDS011;1033;52.560;13.374;2023-05-10T15:50:19;3.67;;;3.37;;
2055;SDS011;1033;52.560;13.374;2023-05-10T15:52:48;4.33;;;3.57;;
2055;SDS011;1033;52.560;13.374;2023-05-10T15:55:17;4.53;;;3.10;;
2055;SDS011;1033;52.560;13.374;2023-05-10T15:57:48;6.33;;;4.57;;
2055;SDS011;1033;52.560;13.374;2023-05-10T16:00:17;5.43;;;3.50;;
2055;SDS011;1033;52.560;13.374;2023-05-10T16:02:46;4.93;;;3.77;;
2055;SDS011;1033;52.560;13.374;2023-05-10T16:05:16;4.63;;;3.53;;
2055;SDS011;1033;52.560;13.374;2023-05-10T16:07:45;4.37;;;3.97;;
2055;SDS011;1033;52.560;13.374;2023-05-10T16:10:15;6.97;;;3.93;;
2055;SDS011;1033;52.560;13.374;2023-05-10T16:12:44;4.43;;;4.00;;
2055;SDS011;1033;52.560;13.374;2023-05-10T16:15:17;4.17;;;3.77;;
2055;SDS011;1033;52.560;13.374;2023-05-10T16:17:47;6.77;;;3.70;;
2055;SDS011;1033;52.560;13.374;2023-05-10T16:20:16;6.60;;;3.60;;
2055;SDS011;1033;52.560;13.374;2023-05-10T16:22:46;6.20;;;3.47;;
2055;SDS011;1033;52.560;13.374;2023-05-10T16:25:16;5.03;;;3.20;;
2055;SDS011;1033;52.560;13.374;2023-05-10T16:27:45;7.80;;;4.60;;
2055;SDS011;1033;52.560;13.374;2023-05-10T16:30:14;6.77;;;3.83;;
2055;SDS011;1033;52.560;13.374;2023-05-10T16:32:45;5.17;;;3.90;;
2055;SDS011;1033;52.560;13.374;2023-05-10T16:35:14;7.77;;;3.50;;